| Date | Time | Temp. (oF) | Dew Point (oF) | Rel. Hum. (%) | Press. (in.) | Wind Dir. | Wind Speed (mph) | Hourly Rainfall (in.) |
|
|---|---|---|---|---|---|---|---|---|---|
| 1 | 09/16 | 00:00 | 67 | 55 | 66 | 30.04 | N | 4 | 0.00 |
| 2 | 09/15 | 23:00 | 69 | 57 | 66 | 30.02 | NNW | 4 | 0.00 |
| 3 | 09/15 | 22:00 | 69 | 56 | 65 | 29.99 | W | 1 | 0.00 |
| 4 | 09/15 | 21:00 | 71 | 56 | 61 | 29.96 | WNW | 6 | 0.00 |
| 5 | 09/15 | 20:00 | 73 | 56 | 57 | 29.93 | W | 5 | 0.00 |
| 6 | 09/15 | 19:00 | 76 | 56 | 52 | 29.90 | W | 3 | 0.00 |
| 7 | 09/15 | 18:00 | 78 | 54 | 45 | 29.87 | WSW | 3 | 0.00 |
| 8 | 09/15 | 17:00 | 80 | 55 | 43 | 29.86 | WSW | 4 | 0.00 |
| 9 | 09/15 | 16:00 | 81 | 55 | 42 | 29.85 | WSW | 6 | 0.00 |
| 10 | 09/15 | 15:00 | 82 | 56 | 42 | 29.85 | WNW | 7 | 0.00 |
| 11 | 09/15 | 14:00 | 81 | 56 | 43 | 29.85 | WSW | 9 | 0.00 |
| 12 | 09/15 | 13:00 | 81 | 59 | 49 | 29.84 | W | 12 | 0.00 |
| 13 | 09/15 | 12:00 | 79 | 61 | 56 | 29.85 | NNW | 7 | 0.00 |
| 14 | 09/15 | 11:00 | 78 | 61 | 58 | 29.83 | N | 7 | 0.00 |
| 15 | 09/15 | 10:00 | 76 | 61 | 60 | 29.82 | WNW | 8 | 0.00 |
| 16 | 09/15 | 09:00 | 76 | 63 | 65 | 29.80 | SW | 6 | 0.00 |
| 17 | 09/15 | 08:00 | 73 | 62 | 71 | 29.79 | SW | 3 | 0.00 |
| 18 | 09/15 | 07:00 | 72 | 62 | 73 | 29.75 | NW | 1 | 0.00 |
| 19 | 09/15 | 06:00 | 74 | 63 | 70 | 29.72 | W | 1 | 0.00 |
| 20 | 09/15 | 05:00 | 75 | 66 | 76 | 29.68 | W | 0 | 0.00 |
| 21 | 09/15 | 04:00 | 77 | 68 | 76 | 29.66 | WSW | 4 | 0.00 |
| 22 | 09/15 | 03:00 | 79 | 70 | 76 | 29.63 | SW | 4 | 0.00 |
| 23 | 09/15 | 02:00 | 80 | 70 | 74 | 29.61 | WSW | 7 | 0.00 |
| 24 | 09/15 | 01:00 | 81 | 71 | 72 | 29.61 | SW | 12 | 0.00 |